sensor_id;sensor_type;location;lat;lon;timestamp;pressure;altitude;pressure_sealevel;temperature;humidity
70027;BME280;57506;50.092;15.804;2023-02-12T00:00:36;100540.97;;;3.20;100.00
70027;BME280;57506;50.092;15.804;2023-02-12T00:03:02;100533.53;;;3.36;100.00
70027;BME280;57506;50.092;15.804;2023-02-12T00:05:28;100542.81;;;3.30;100.00
70027;BME280;57506;50.092;15.804;2023-02-12T00:07:53;100545.03;;;3.36;100.00
70027;BME280;57506;50.092;15.804;2023-02-12T00:10:19;100529.16;;;3.35;100.00
70027;BME280;57506;50.092;15.804;2023-02-12T00:12:44;100550.28;;;3.49;100.00
70027;BME280;57506;50.092;15.804;2023-02-12T00:15:10;100531.69;;;3.36;100.00
70027;BME280;57506;50.092;15.804;2023-02-12T00:17:35;100537.19;;;3.46;100.00
70027;BME280;57506;50.092;15.804;2023-02-12T00:20:01;100562.53;;;3.51;100.00
70027;BME280;57506;50.092;15.804;2023-02-12T00:22:26;100563.16;;;3.55;100.00
70027;BME280;57506;50.092;15.804;2023-02-12T00:24:54;100567.97;;;3.50;100.00
70027;BME280;57506;50.092;15.804;2023-02-12T00:27:21;100588.56;;;3.48;100.00
70027;BME280;57506;50.092;15.804;2023-02-12T00:29:46;100575.50;;;3.56;100.00
70027;BME280;57506;50.092;15.804;2023-02-12T00:32:12;100576.38;;;3.57;100.00
70027;BME280;57506;50.092;15.804;2023-02-12T00:34:39;100587.63;;;3.60;100.00
70027;BME280;57506;50.092;15.804;2023-02-12T00:37:05;100591.44;;;3.69;100.00
70027;BME280;57506;50.092;15.804;2023-02-12T00:39:31;100581.00;;;3.66;100.00
70027;BME280;57506;50.092;15.804;2023-02-12T00:41:56;100587.31;;;3.76;100.00
70027;BME280;57506;50.092;15.804;2023-02-12T00:44:22;100584.41;;;3.68;100.00
70027;BME280;57506;50.092;15.804;2023-02-12T00:46:47;100586.09;;;3.69;100.00
70027;BME280;57506;50.092;15.804;2023-02-12T00:49:13;100593.97;;;3.70;100.00
70027;BME280;57506;50.092;15.804;2023-02-12T00:51:39;100592.50;;;3.66;100.00
70027;BME280;57506;50.092;15.804;2023-02-12T00:54:05;100600.31;;;3.80;100.00
70027;BME280;57506;50.092;15.804;2023-02-12T00:56:30;100606.50;;;3.81;100.00
70027;BME280;57506;50.092;15.804;2023-02-12T00:58:56;100587.69;;;3.71;100.00
70027;BME280;57506;50.092;15.804;2023-02-12T01:01:22;100607.78;;;3.75;100.00
70027;BME280;57506;50.092;15.804;2023-02-12T01:03:47;100621.00;;;3.77;100.00
70027;BME280;57506;50.092;15.804;2023-02-12T01:06:13;100606.34;;;3.71;100.00
70027;BME280;57506;50.092;15.804;2023-02-12T01:08:38;100616.75;;;3.74;100.00
70027;BME280;57506;50.092;15.804;2023-02-12T01:11:04;100618.72;;;3.72;100.00
70027;BME280;57506;50.092;15.804;2023-02-12T01:13:31;100615.19;;;3.72;100.00
70027;BME280;57506;50.092;15.804;2023-02-12T01:16:08;100615.09;;;3.73;100.00
70027;BME280;57506;50.092;15.804;2023-02-12T01:18:35;100616.28;;;3.69;100.00
70027;BME280;57506;50.092;15.804;2023-02-12T01:21:02;100613.00;;;3.77;100.00
70027;BME280;57506;50.092;15.804;2023-02-12T01:23:32;100617.50;;;3.76;100.00
70027;BME280;57506;50.092;15.804;2023-02-12T01:25:57;100629.31;;;3.85;100.00
70027;BME280;57506;50.092;15.804;2023-02-12T01:28:23;100614.25;;;3.84;100.00
70027;BME280;57506;50.092;15.804;2023-02-12T01:30:49;100636.09;;;3.89;100.00
70027;BME280;57506;50.092;15.804;2023-02-12T01:33:14;100640.72;;;3.98;100.00
70027;BME280;57506;50.092;15.804;2023-02-12T01:35:40;100640.44;;;3.90;100.00
70027;BME280;57506;50.092;15.804;2023-02-12T01:38:05;100643.47;;;3.85;100.00
70027;BME280;57506;50.092;15.804;2023-02-12T01:40:31;100653.66;;;3.92;100.00
70027;BME280;57506;50.092;15.804;2023-02-12T01:42:59;100656.59;;;3.89;100.00
70027;BME280;57506;50.092;15.804;2023-02-12T01:48:10;100645.19;;;3.86;100.00
70027;BME280;57506;50.092;15.804;2023-02-12T01:50:36;100645.94;;;3.89;100.00
70027;BME280;57506;50.092;15.804;2023-02-12T01:53:03;100639.63;;;3.90;100.00
70027;BME280;57506;50.092;15.804;2023-02-12T01:55:28;100649.56;;;3.88;100.00
70027;BME280;57506;50.092;15.804;2023-02-12T01:57:54;100627.56;;;3.73;100.00
70027;BME280;57506;50.092;15.804;2023-02-12T02:00:22;100644.78;;;3.80;100.00
70027;BME280;57506;50.092;15.804;2023-02-12T02:02:55;100625.59;;;3.75;100.00
70027;BME280;57506;50.092;15.804;2023-02-12T02:08:42;100636.63;;;3.70;100.00
70027;BME280;57506;50.092;15.804;2023-02-12T02:11:08;100640.19;;;3.82;100.00
70027;BME280;57506;50.092;15.804;2023-02-12T02:13:53;100649.16;;;3.81;100.00
70027;BME280;57506;50.092;15.804;2023-02-12T02:16:41;100656.75;;;3.74;100.00
70027;BME280;57506;50.092;15.804;2023-02-12T02:19:29;100644.84;;;3.67;100.00
70027;BME280;57506;50.092;15.804;2023-02-12T02:30:59;100635.31;;;3.76;100.00
70027;BME280;57506;50.092;15.804;2023-02-12T02:37:03;100628.47;;;3.61;100.00
70027;BME280;57506;50.092;15.804;2023-02-12T02:39:37;100654.78;;;3.65;100.00
70027;BME280;57506;50.092;15.804;2023-02-12T02:42:10;100656.06;;;3.60;100.00
70027;BME280;57506;50.092;15.804;2023-02-12T02:47:36;100642.28;;;3.42;100.00
70027;BME280;57506;50.092;15.804;2023-02-12T02:50:08;100645.22;;;3.39;100.00
70027;BME280;57506;50.092;15.804;2023-02-12T02:55:07;100638.91;;;3.40;100.00
70027;BME280;57506;50.092;15.804;2023-02-12T02:58:02;100654.09;;;3.50;100.00
70027;BME280;57506;50.092;15.804;2023-02-12T03:01:09;100650.16;;;3.56;100.00
70027;BME280;57506;50.092;15.804;2023-02-12T03:03:51;100621.28;;;3.50;100.00
70027;BME280;57506;50.092;15.804;2023-02-12T03:06:40;100655.47;;;3.56;100.00
70027;BME280;57506;50.092;15.804;2023-02-12T03:11:59;100646.63;;;3.56;100.00
70027;BME280;57506;50.092;15.804;2023-02-12T03:14:28;100634.16;;;3.56;100.00
70027;BME280;57506;50.092;15.804;2023-02-12T03:17:09;100637.16;;;3.51;100.00
70027;BME280;57506;50.092;15.804;2023-02-12T03:19:45;100650.16;;;3.56;100.00
70027;BME280;57506;50.092;15.804;2023-02-12T03:22:14;100644.28;;;3.51;100.00
70027;BME280;57506;50.092;15.804;2023-02-12T03:24:46;100653.66;;;3.57;100.00
70027;BME280;57506;50.092;15.804;2023-02-12T03:29:43;100664.88;;;3.49;100.00
70027;BME280;57506;50.092;15.804;2023-02-12T03:32:16;100651.03;;;3.44;100.00
70027;BME280;57506;50.092;15.804;2023-02-12T03:38:00;100649.38;;;3.30;100.00
70027;BME280;57506;50.092;15.804;2023-02-12T03:40:36;100678.41;;;3.46;100.00
70027;BME280;57506;50.092;15.804;2023-02-12T03:46:18;100671.38;;;3.45;100.00
70027;BME280;57506;50.092;15.804;2023-02-12T03:51:43;100661.31;;;3.37;100.00
70027;BME280;57506;50.092;15.804;2023-02-12T03:54:12;100670.88;;;3.40;100.00
70027;BME280;57506;50.092;15.804;2023-02-12T03:56:48;100673.88;;;3.35;100.00
70027;BME280;57506;50.092;15.804;2023-02-12T03:59:21;100676.66;;;3.34;100.00
70027;BME280;57506;50.092;15.804;2023-02-12T04:01:49;100657.69;;;3.26;100.00
70027;BME280;57506;50.092;15.804;2023-02-12T04:04:16;100680.28;;;3.33;100.00
70027;BME280;57506;50.092;15.804;2023-02-12T04:06:41;100659.44;;;3.14;100.00
70027;BME280;57506;50.092;15.804;2023-02-12T04:09:09;100688.50;;;3.30;100.00
70027;BME280;57506;50.092;15.804;2023-02-12T04:30:58;100712.94;;;3.11;100.00
70027;BME280;57506;50.092;15.804;2023-02-12T04:33:31;100711.13;;;3.11;100.00
70027;BME280;57506;50.092;15.804;2023-02-12T04:36:07;100715.50;;;3.12;100.00
70027;BME280;57506;50.092;15.804;2023-02-12T04:41:06;100707.81;;;3.21;100.00
70027;BME280;57506;50.092;15.804;2023-02-12T04:43:34;100716.09;;;3.29;100.00
70027;BME280;57506;50.092;15.804;2023-02-12T04:46:00;100701.84;;;3.17;100.00
70027;BME280;57506;50.092;15.804;2023-02-12T04:48:26;100717.41;;;3.23;100.00
70027;BME280;57506;50.092;15.804;2023-02-12T04:50:51;100718.47;;;3.21;100.00
70027;BME280;57506;50.092;15.804;2023-02-12T04:53:17;100728.06;;;3.23;100.00
70027;BME280;57506;50.092;15.804;2023-02-12T04:55:43;100734.47;;;3.21;100.00
70027;BME280;57506;50.092;15.804;2023-02-12T04:58:08;100728.59;;;3.15;100.00
70027;BME280;57506;50.092;15.804;2023-02-12T05:00:34;100753.41;;;3.16;100.00
70027;BME280;57506;50.092;15.804;2023-02-12T05:03:00;100750.31;;;3.09;100.00
70027;BME280;57506;50.092;15.804;2023-02-12T05:05:26;100753.22;;;3.06;100.00
70027;BME280;57506;50.092;15.804;2023-02-12T05:07:51;100742.34;;;3.09;100.00
70027;BME280;57506;50.092;15.804;2023-02-12T05:10:17;100736.41;;;3.06;100.00
70027;BME280;57506;50.092;15.804;2023-02-12T05:12:43;100755.97;;;3.17;100.00
70027;BME280;57506;50.092;15.804;2023-02-12T05:15:08;100751.50;;;3.18;100.00
70027;BME280;57506;50.092;15.804;2023-02-12T05:17:34;100747.34;;;3.14;100.00
70027;BME280;57506;50.092;15.804;2023-02-12T05:19:59;100733.41;;;2.98;100.00
70027;BME280;57506;50.092;15.804;2023-02-12T05:22:25;100749.28;;;2.87;100.00
70027;BME280;57506;50.092;15.804;2023-02-12T05:24:50;100758.34;;;2.84;100.00
70027;BME280;57506;50.092;15.804;2023-02-12T05:27:16;100759.94;;;2.87;100.00
70027;BME280;57506;50.092;15.804;2023-02-12T05:29:41;100770.69;;;2.85;100.00
70027;BME280;57506;50.092;15.804;2023-02-12T05:32:07;100763.88;;;2.81;100.00
70027;BME280;57506;50.092;15.804;2023-02-12T05:34:33;100773.91;;;2.90;100.00
70027;BME280;57506;50.092;15.804;2023-02-12T05:36:59;100765.91;;;2.90;100.00
70027;BME280;57506;50.092;15.804;2023-02-12T05:39:24;100775.25;;;2.96;100.00
70027;BME280;57506;50.092;15.804;2023-02-12T05:41:50;100778.16;;;3.05;100.00
70027;BME280;57506;50.092;15.804;2023-02-12T05:44:15;100789.13;;;2.88;100.00
70027;BME280;57506;50.092;15.804;2023-02-12T05:46:42;100802.19;;;2.78;100.00
70027;BME280;57506;50.092;15.804;2023-02-12T05:49:08;100802.63;;;2.72;100.00
70027;BME280;57506;50.092;15.804;2023-02-12T05:51:34;100800.81;;;2.73;100.00
70027;BME280;57506;50.092;15.804;2023-02-12T05:54:02;100794.09;;;2.80;100.00
70027;BME280;57506;50.092;15.804;2023-02-12T05:56:42;100793.91;;;2.83;100.00
70027;BME280;57506;50.092;15.804;2023-02-12T05:59:17;100790.69;;;2.78;100.00
70027;BME280;57506;50.092;15.804;2023-02-12T06:01:45;100802.00;;;2.81;100.00
70027;BME280;57506;50.092;15.804;2023-02-12T06:04:17;100811.59;;;2.84;100.00
70027;BME280;57506;50.092;15.804;2023-02-12T06:06:43;100806.47;;;2.81;100.00
70027;BME280;57506;50.092;15.804;2023-02-12T06:09:10;100794.88;;;2.82;100.00
70027;BME280;57506;50.092;15.804;2023-02-12T06:11:36;100815.66;;;2.90;100.00
70027;BME280;57506;50.092;15.804;2023-02-12T06:14:04;100801.25;;;2.79;100.00
70027;BME280;57506;50.092;15.804;2023-02-12T06:16:29;100809.78;;;2.85;100.00
70027;BME280;57506;50.092;15.804;2023-02-12T06:18:55;100794.31;;;2.77;100.00
70027;BME280;57506;50.092;15.804;2023-02-12T06:21:22;100808.19;;;2.82;100.00
70027;BME280;57506;50.092;15.804;2023-02-12T06:23:49;100814.34;;;2.83;100.00
70027;BME280;57506;50.092;15.804;2023-02-12T06:26:15;100817.22;;;2.79;100.00
70027;BME280;57506;50.092;15.804;2023-02-12T06:28:41;100836.09;;;2.89;100.00
70027;BME280;57506;50.092;15.804;2023-02-12T06:31:27;100836.09;;;2.89;100.00
70027;BME280;57506;50.092;15.804;2023-02-12T06:33:54;100841.41;;;2.89;100.00
70027;BME280;57506;50.092;15.804;2023-02-12T06:36:21;100852.59;;;2.94;100.00
70027;BME280;57506;50.092;15.804;2023-02-12T06:38:47;100856.75;;;2.98;100.00
70027;BME280;57506;50.092;15.804;2023-02-12T06:41:13;100860.16;;;3.00;100.00
70027;BME280;57506;50.092;15.804;2023-02-12T06:43:38;100849.94;;;2.94;100.00
70027;BME280;57506;50.092;15.804;2023-02-12T06:46:05;100861.47;;;3.07;100.00
70027;BME280;57506;50.092;15.804;2023-02-12T06:48:31;100869.97;;;3.00;100.00
70027;BME280;57506;50.092;15.804;2023-02-12T06:51:03;100876.69;;;3.05;100.00
70027;BME280;57506;50.092;15.804;2023-02-12T06:53:29;100884.16;;;3.13;100.00
70027;BME280;57506;50.092;15.804;2023-02-12T06:55:55;100884.16;;;3.13;100.00
70027;BME280;57506;50.092;15.804;2023-02-12T06:58:20;100875.84;;;3.17;100.00
70027;BME280;57506;50.092;15.804;2023-02-12T07:00:45;100884.38;;;3.23;100.00
70027;BME280;57506;50.092;15.804;2023-02-12T07:03:11;100879.16;;;3.21;100.00
70027;BME280;57506;50.092;15.804;2023-02-12T07:05:38;100892.59;;;3.20;100.00
70027;BME280;57506;50.092;15.804;2023-02-12T07:08:04;100903.66;;;3.26;100.00
70027;BME280;57506;50.092;15.804;2023-02-12T07:10:29;100892.69;;;3.18;100.00
70027;BME280;57506;50.092;15.804;2023-02-12T07:12:56;100904.09;;;3.20;100.00
70027;BME280;57506;50.092;15.804;2023-02-12T07:15:21;100914.22;;;3.28;100.00
70027;BME280;57506;50.092;15.804;2023-02-12T07:17:47;100916.25;;;3.24;100.00
70027;BME280;57506;50.092;15.804;2023-02-12T07:20:12;100914.97;;;3.30;100.00
70027;BME280;57506;50.092;15.804;2023-02-12T07:22:38;100920.94;;;3.33;100.00
70027;BME280;57506;50.092;15.804;2023-02-12T07:25:04;100915.72;;;3.32;100.00
70027;BME280;57506;50.092;15.804;2023-02-12T07:27:29;100917.09;;;3.63;100.00
70027;BME280;57506;50.092;15.804;2023-02-12T07:29:55;100913.16;;;3.43;100.00
70027;BME280;57506;50.092;15.804;2023-02-12T07:32:20;100931.09;;;3.54;100.00
70027;BME280;57506;50.092;15.804;2023-02-12T07:34:46;100939.72;;;3.57;100.00
70027;BME280;57506;50.092;15.804;2023-02-12T07:37:11;100912.00;;;3.47;100.00
70027;BME280;57506;50.092;15.804;2023-02-12T07:39:37;100930.97;;;3.68;100.00
70027;BME280;57506;50.092;15.804;2023-02-12T07:42:03;100935.75;;;3.75;100.00
70027;BME280;57506;50.092;15.804;2023-02-12T07:44:28;100935.34;;;3.81;100.00
70027;BME280;57506;50.092;15.804;2023-02-12T07:46:55;100935.88;;;3.86;100.00
70027;BME280;57506;50.092;15.804;2023-02-12T07:49:21;100950.25;;;3.97;100.00
70027;BME280;57506;50.092;15.804;2023-02-12T07:51:48;100932.25;;;3.88;100.00
70027;BME280;57506;50.092;15.804;2023-02-12T07:54:14;100957.50;;;3.95;100.00
70027;BME280;57506;50.092;15.804;2023-02-12T07:56:41;100963.91;;;4.05;100.00
70027;BME280;57506;50.092;15.804;2023-02-12T07:59:11;100947.91;;;4.05;100.00
70027;BME280;57506;50.092;15.804;2023-02-12T08:01:42;100964.09;;;4.14;100.00
70027;BME280;57506;50.092;15.804;2023-02-12T08:04:12;100973.50;;;4.20;100.00
70027;BME280;57506;50.092;15.804;2023-02-12T08:06:42;100969.28;;;4.29;100.00
70027;BME280;57506;50.092;15.804;2023-02-12T08:09:11;100964.91;;;4.28;100.00
70027;BME280;57506;50.092;15.804;2023-02-12T08:11:40;100977.16;;;4.43;100.00
70027;BME280;57506;50.092;15.804;2023-02-12T08:14:06;100977.34;;;4.52;100.00
70027;BME280;57506;50.092;15.804;2023-02-12T08:16:36;100971.13;;;4.65;100.00
70027;BME280;57506;50.092;15.804;2023-02-12T08:19:03;100970.91;;;4.68;100.00
70027;BME280;57506;50.092;15.804;2023-02-12T08:21:29;100974.13;;;4.84;100.00
70027;BME280;57506;50.092;15.804;2023-02-12T08:23:58;100974.19;;;4.95;100.00
70027;BME280;57506;50.092;15.804;2023-02-12T08:26:30;101002.44;;;5.10;100.00
70027;BME280;57506;50.092;15.804;2023-02-12T08:28:57;101010.84;;;5.17;100.00
70027;BME280;57506;50.092;15.804;2023-02-12T08:31:30;101014.09;;;5.09;100.00
70027;BME280;57506;50.092;15.804;2023-02-12T08:33:56;101030.53;;;5.16;100.00
70027;BME280;57506;50.092;15.804;2023-02-12T08:36:28;101012.88;;;5.13;100.00
70027;BME280;57506;50.092;15.804;2023-02-12T08:38:57;101036.34;;;5.21;100.00
70027;BME280;57506;50.092;15.804;2023-02-12T08:41:25;101007.03;;;5.08;100.00
70027;BME280;57506;50.092;15.804;2023-02-12T08:43:52;101012.56;;;5.18;100.00
70027;BME280;57506;50.092;15.804;2023-02-12T08:46:21;101035.22;;;5.36;100.00
70027;BME280;57506;50.092;15.804;2023-02-12T08:48:47;101031.97;;;5.44;100.00
70027;BME280;57506;50.092;15.804;2023-02-12T08:51:19;101029.03;;;5.36;100.00
70027;BME280;57506;50.092;15.804;2023-02-12T08:53:46;101034.63;;;5.44;100.00
70027;BME280;57506;50.092;15.804;2023-02-12T08:56:15;101044.41;;;5.56;100.00
70027;BME280;57506;50.092;15.804;2023-02-12T08:58:42;101058.28;;;5.61;100.00
70027;BME280;57506;50.092;15.804;2023-02-12T09:01:10;101061.06;;;5.59;100.00
70027;BME280;57506;50.092;15.804;2023-02-12T09:03:37;101072.28;;;5.65;100.00
70027;BME280;57506;50.092;15.804;2023-02-12T09:06:03;101071.66;;;5.61;100.00
70027;BME280;57506;50.092;15.804;2023-02-12T09:08:29;101073.03;;;5.67;100.00
70027;BME280;57506;50.092;15.804;2023-02-12T09:10:55;101086.28;;;5.68;100.00
70027;BME280;57506;50.092;15.804;2023-02-12T09:13:21;101094.31;;;5.68;100.00
70027;BME280;57506;50.092;15.804;2023-02-12T09:15:46;101076.56;;;5.67;100.00
70027;BME280;57506;50.092;15.804;2023-02-12T09:18:13;101098.84;;;5.79;100.00
70027;BME280;57506;50.092;15.804;2023-02-12T09:20:43;101105.72;;;5.70;100.00
70027;BME280;57506;50.092;15.804;2023-02-12T09:23:11;101100.84;;;5.64;100.00
70027;BME280;57506;50.092;15.804;2023-02-12T09:25:42;101103.91;;;5.71;100.00
70027;BME280;57506;50.092;15.804;2023-02-12T09:28:09;101095.03;;;5.70;100.00
70027;BME280;57506;50.092;15.804;2023-02-12T09:30:36;101099.78;;;5.67;100.00
70027;BME280;57506;50.092;15.804;2023-02-12T09:33:03;101123.88;;;5.78;100.00
70027;BME280;57506;50.092;15.804;2023-02-12T09:35:29;101124.13;;;5.99;100.00
70027;BME280;57506;50.092;15.804;2023-02-12T09:37:55;101120.59;;;6.09;100.00
70027;BME280;57506;50.092;15.804;2023-02-12T09:45:46;101133.66;;;6.25;100.00
70027;BME280;57506;50.092;15.804;2023-02-12T09:51:18;101161.06;;;6.51;100.00
70027;BME280;57506;50.092;15.804;2023-02-12T09:53:45;101139.75;;;6.38;100.00
70027;BME280;57506;50.092;15.804;2023-02-12T09:56:15;101158.50;;;6.27;100.00
70027;BME280;57506;50.092;15.804;2023-02-12T09:58:52;101170.50;;;6.21;100.00
70027;BME280;57506;50.092;15.804;2023-02-12T10:01:20;101161.84;;;6.07;100.00
70027;BME280;57506;50.092;15.804;2023-02-12T10:03:48;101142.59;;;6.02;100.00
70027;BME280;57506;50.092;15.804;2023-02-12T10:06:26;101156.25;;;6.10;100.00
70027;BME280;57506;50.092;15.804;2023-02-12T10:09:07;101169.19;;;6.16;100.00
70027;BME280;57506;50.092;15.804;2023-02-12T10:14:40;101174.56;;;6.27;100.00
70027;BME280;57506;50.092;15.804;2023-02-12T10:25:38;101179.13;;;6.82;100.00
70027;BME280;57506;50.092;15.804;2023-02-12T10:28:14;101181.09;;;6.80;100.00
70027;BME280;57506;50.092;15.804;2023-02-12T10:30:57;101194.22;;;6.72;100.00
70027;BME280;57506;50.092;15.804;2023-02-12T10:33:29;101150.28;;;6.63;100.00
70027;BME280;57506;50.092;15.804;2023-02-12T10:39:24;101185.84;;;6.77;100.00
70027;BME280;57506;50.092;15.804;2023-02-12T10:42:10;101188.50;;;6.99;100.00
70027;BME280;57506;50.092;15.804;2023-02-12T10:44:37;101186.91;;;7.19;100.00
70027;BME280;57506;50.092;15.804;2023-02-12T10:47:02;101189.97;;;7.25;100.00
70027;BME280;57506;50.092;15.804;2023-02-12T10:49:30;101185.94;;;7.20;100.00
70027;BME280;57506;50.092;15.804;2023-02-12T10:54:37;101172.38;;;7.32;100.00
70027;BME280;57506;50.092;15.804;2023-02-12T10:57:10;101177.53;;;7.24;100.00
70027;BME280;57506;50.092;15.804;2023-02-12T10:59:38;101187.03;;;7.28;100.00
70027;BME280;57506;50.092;15.804;2023-02-12T11:02:13;101188.94;;;7.49;100.00
70027;BME280;57506;50.092;15.804;2023-02-12T11:04:41;101181.94;;;7.25;100.00
70027;BME280;57506;50.092;15.804;2023-02-12T11:07:07;101177.06;;;7.08;100.00
70027;BME280;57506;50.092;15.804;2023-02-12T11:09:45;101162.72;;;6.98;100.00
70027;BME280;57506;50.092;15.804;2023-02-12T11:15:21;101171.81;;;7.07;100.00
70027;BME280;57506;50.092;15.804;2023-02-12T11:17:55;101182.66;;;7.27;100.00
70027;BME280;57506;50.092;15.804;2023-02-12T11:23:00;101187.38;;;7.35;100.00
70027;BME280;57506;50.092;15.804;2023-02-12T11:25:29;101193.19;;;7.51;100.00
70027;BME280;57506;50.092;15.804;2023-02-12T11:28:17;101191.88;;;7.57;100.00
70027;BME280;57506;50.092;15.804;2023-02-12T11:31:01;101181.13;;;7.57;100.00
70027;BME280;57506;50.092;15.804;2023-02-12T11:33:31;101193.78;;;7.66;100.00
70027;BME280;57506;50.092;15.804;2023-02-12T11:36:02;101194.88;;;7.75;100.00
70027;BME280;57506;50.092;15.804;2023-02-12T11:38:35;101192.31;;;7.73;100.00
70027;BME280;57506;50.092;15.804;2023-02-12T11:41:26;101199.97;;;7.78;100.00
70027;BME280;57506;50.092;15.804;2023-02-12T11:43:50;101193.72;;;7.88;100.00
70027;BME280;57506;50.092;15.804;2023-02-12T11:46:22;101192.81;;;7.99;100.00
70027;BME280;57506;50.092;15.804;2023-02-12T11:48:48;101180.59;;;8.06;100.00
70027;BME280;57506;50.092;15.804;2023-02-12T11:51:25;101190.38;;;7.96;100.00
70027;BME280;57506;50.092;15.804;2023-02-12T11:53:54;101189.19;;;7.89;100.00
70027;BME280;57506;50.092;15.804;2023-02-12T11:56:21;101177.19;;;7.72;100.00
70027;BME280;57506;50.092;15.804;2023-02-12T11:58:49;101185.84;;;7.64;100.00
70027;BME280;57506;50.092;15.804;2023-02-12T12:01:19;101185.00;;;7.64;100.00
70027;BME280;57506;50.092;15.804;2023-02-12T12:04:06;101176.44;;;7.70;100.00
70027;BME280;57506;50.092;15.804;2023-02-12T12:06:45;101185.72;;;7.77;100.00
70027;BME280;57506;50.092;15.804;2023-02-12T12:09:27;101182.72;;;7.91;100.00
70027;BME280;57506;50.092;15.804;2023-02-12T12:14:47;101178.66;;;7.97;100.00
70027;BME280;57506;50.092;15.804;2023-02-12T12:17:58;101179.78;;;7.94;100.00
70027;BME280;57506;50.092;15.804;2023-02-12T12:20:55;101176.94;;;7.75;100.00
70027;BME280;57506;50.092;15.804;2023-02-12T12:23:33;101190.56;;;7.83;100.00
70027;BME280;57506;50.092;15.804;2023-02-12T12:26:10;101177.19;;;7.72;100.00
70027;BME280;57506;50.092;15.804;2023-02-12T12:34:12;101168.31;;;7.49;100.00
70027;BME280;57506;50.092;15.804;2023-02-12T13:00:57;101151.06;;;8.27;100.00
70027;BME280;57506;50.092;15.804;2023-02-12T13:06:11;101138.31;;;8.29;100.00
70027;BME280;57506;50.092;15.804;2023-02-12T13:09:07;101144.56;;;8.29;100.00
70027;BME280;57506;50.092;15.804;2023-02-12T13:19:59;101142.97;;;8.38;100.00
70027;BME280;57506;50.092;15.804;2023-02-12T13:22:42;101141.25;;;8.37;100.00
70027;BME280;57506;50.092;15.804;2023-02-12T13:27:58;101139.91;;;8.31;100.00
70027;BME280;57506;50.092;15.804;2023-02-12T13:30:37;101147.75;;;8.34;100.00
70027;BME280;57506;50.092;15.804;2023-02-12T13:33:22;101140.44;;;8.25;100.00
70027;BME280;57506;50.092;15.804;2023-02-12T13:35:53;101142.19;;;8.15;100.00
70027;BME280;57506;50.092;15.804;2023-02-12T13:38:33;101135.56;;;7.98;100.00
70027;BME280;57506;50.092;15.804;2023-02-12T13:41:05;101153.84;;;8.04;100.00
70027;BME280;57506;50.092;15.804;2023-02-12T13:46:30;101167.53;;;8.01;100.00
70027;BME280;57506;50.092;15.804;2023-02-12T13:49:12;101158.38;;;8.04;100.00
70027;BME280;57506;50.092;15.804;2023-02-12T13:51:47;101147.75;;;8.02;100.00
70027;BME280;57506;50.092;15.804;2023-02-12T13:57:06;101137.09;;;7.91;100.00
70027;BME280;57506;50.092;15.804;2023-02-12T14:04:45;101165.03;;;7.89;100.00
70027;BME280;57506;50.092;15.804;2023-02-12T14:07:15;101146.19;;;7.68;100.00
70027;BME280;57506;50.092;15.804;2023-02-12T14:09:42;101170.34;;;7.68;100.00
70027;BME280;57506;50.092;15.804;2023-02-12T14:28:06;101142.41;;;7.38;100.00
70027;BME280;57506;50.092;15.804;2023-02-12T14:30:37;101147.78;;;7.27;100.00
70027;BME280;57506;50.092;15.804;2023-02-12T14:35:42;101141.13;;;7.11;100.00
70027;BME280;57506;50.092;15.804;2023-02-12T14:43:28;101146.34;;;7.12;100.00
70027;BME280;57506;50.092;15.804;2023-02-12T14:45:57;101136.97;;;7.07;100.00
70027;BME280;57506;50.092;15.804;2023-02-12T14:54:01;101148.31;;;7.10;100.00
70027;BME280;57506;50.092;15.804;2023-02-12T14:56:32;101147.31;;;7.00;100.00
70027;BME280;57506;50.092;15.804;2023-02-12T14:59:05;101147.31;;;7.00;100.00
70027;BME280;57506;50.092;15.804;2023-02-12T15:01:33;101143.22;;;6.96;100.00
70027;BME280;57506;50.092;15.804;2023-02-12T15:04:10;101159.16;;;6.97;100.00
70027;BME280;57506;50.092;15.804;2023-02-12T15:06:50;101157.19;;;6.99;100.00
70027;BME280;57506;50.092;15.804;2023-02-12T15:09:25;101153.31;;;6.92;100.00
70027;BME280;57506;50.092;15.804;2023-02-12T15:12:11;101146.00;;;6.83;100.00
70027;BME280;57506;50.092;15.804;2023-02-12T15:14:44;101138.56;;;6.76;100.00
70027;BME280;57506;50.092;15.804;2023-02-12T15:17:25;101159.53;;;6.82;100.00
70027;BME280;57506;50.092;15.804;2023-02-12T15:19:59;101159.03;;;6.77;100.00
70027;BME280;57506;50.092;15.804;2023-02-12T15:22:35;101154.28;;;6.69;100.00
70027;BME280;57506;50.092;15.804;2023-02-12T15:25:28;101164.63;;;6.74;100.00
70027;BME280;57506;50.092;15.804;2023-02-12T15:27:56;101163.91;;;6.72;100.00
70027;BME280;57506;50.092;15.804;2023-02-12T15:30:25;101167.66;;;6.69;100.00
70027;BME280;57506;50.092;15.804;2023-02-12T15:32:54;101151.72;;;6.56;100.00
70027;BME280;57506;50.092;15.804;2023-02-12T15:35:33;101166.22;;;6.65;100.00
70027;BME280;57506;50.092;15.804;2023-02-12T15:38:00;101151.09;;;6.53;100.00
70027;BME280;57506;50.092;15.804;2023-02-12T15:40:28;101155.72;;;6.51;100.00
70027;BME280;57506;50.092;15.804;2023-02-12T15:42:59;101140.00;;;6.35;100.00
70027;BME280;57506;50.092;15.804;2023-02-12T15:45:33;101157.88;;;6.35;100.00
70027;BME280;57506;50.092;15.804;2023-02-12T15:53:15;101125.19;;;5.72;100.00
70027;BME280;57506;50.092;15.804;2023-02-12T15:55:43;101147.31;;;5.74;100.00
70027;BME280;57506;50.092;15.804;2023-02-12T15:58:24;101144.75;;;5.73;100.00